Time;durP1;ratioP1;P1;durP2;ratioP2;P2;SDS_P1;SDS_P2;PMS_P1;PMS_P2;Temp;Humidity;BMP_temperature;BMP_pressure;BME280_temperature;BME280_humidity;BME280_pressure;Samples;Min_cycle;Max_cycle;Signal;HPM_P1;HPM_P2
2022/05/13 00:01:41;;;;;;;5.40;2.50;;;15.10;73.20;;;;;;5086794;28;20223;-69
2022/05/13 00:04:08;;;;;;;5.73;2.63;;;15.10;73.50;;;;;;5075491;28;20475;-70
2022/05/13 00:06:35;;;;;;;6.83;2.70;;;15.00;73.50;;;;;;5070562;28;20241;-69
2022/05/13 00:09:04;;;;;;;5.93;2.53;;;15.00;73.70;;;;;;5068680;28;20300;-70
2022/05/13 00:11:31;;;;;;;6.97;2.67;;;14.90;73.70;;;;;;5074462;28;20300;-69
2022/05/13 00:13:58;;;;;;;5.73;2.60;;;14.90;73.80;;;;;;5074337;28;20267;-70
2022/05/13 00:16:25;;;;;;;6.23;2.67;;;15.00;74.10;;;;;;5070795;28;20718;-70
2022/05/13 00:18:52;;;;;;;6.57;2.97;;;14.90;74.10;;;;;;5072936;28;20657;-70
2022/05/13 00:21:19;;;;;;;7.30;2.60;;;14.80;74.00;;;;;;5074023;28;20205;-70
2022/05/13 00:23:47;;;;;;;5.17;2.80;;;14.80;74.30;;;;;;5072941;28;20207;-70
2022/05/13 00:26:16;;;;;;;4.43;2.50;;;14.80;74.30;;;;;;5073782;28;20205;-70
2022/05/13 00:28:42;;;;;;;4.17;2.70;;;14.80;74.40;;;;;;5084141;28;20248;-70
2022/05/13 00:31:12;;;;;;;4.93;2.27;;;14.80;74.50;;;;;;5090784;28;20296;-70
2022/05/13 00:33:39;;;;;;;2.77;2.17;;;14.70;74.50;;;;;;5072316;28;20212;-69
2022/05/13 00:36:07;;;;;;;3.00;2.20;;;14.70;74.60;;;;;;5076692;28;20809;-70
2022/05/13 00:38:34;;;;;;;10.43;3.20;;;14.60;74.60;;;;;;5077114;28;20207;-70
2022/05/13 00:41:01;;;;;;;5.37;2.60;;;14.60;74.70;;;;;;5077947;28;20308;-69
2022/05/13 00:43:48;;;;;;;5.37;2.60;;;14.60;74.90;;;;;;5077236;28;20209;-69
2022/05/13 00:46:15;;;;;;;3.27;2.53;;;14.50;74.90;;;;;;5089316;28;20206;-69
2022/05/13 00:48:42;;;;;;;5.53;2.50;;;14.50;75.10;;;;;;5066152;28;20211;-70
2022/05/13 00:51:12;;;;;;;5.60;2.50;;;14.40;75.10;;;;;;5076639;28;20678;-69
2022/05/13 00:53:39;;;;;;;4.63;2.80;;;14.40;75.40;;;;;;5077457;28;20210;-70
2022/05/13 00:56:07;;;;;;;6.63;2.87;;;14.40;75.50;;;;;;5077943;28;20256;-68
2022/05/13 00:58:38;;;;;;;3.67;2.60;;;14.40;75.60;;;;;;5076164;28;20712;-70
2022/05/13 01:01:07;;;;;;;4.93;2.90;;;14.40;75.60;;;;;;5085233;28;20293;-72
2022/05/13 01:03:35;;;;;;;7.57;2.60;;;14.40;75.70;;;;;;5070074;28;20205;-70
2022/05/13 01:06:06;;;;;;;4.67;3.00;;;14.40;75.80;;;;;;5064972;28;20202;-70
2022/05/13 01:08:36;;;;;;;6.10;2.47;;;14.30;75.80;;;;;;5071910;28;20923;-70
2022/05/13 01:11:07;;;;;;;4.40;2.20;;;14.40;75.90;;;;;;5082546;28;20204;-70
2022/05/13 01:13:37;;;;;;;7.77;2.83;;;14.30;75.90;;;;;;5085362;28;20229;-70
2022/05/13 01:16:04;;;;;;;4.67;2.27;;;14.30;76.10;;;;;;5078290;28;20225;-70
2022/05/13 01:18:35;;;;;;;5.83;2.47;;;14.30;76.10;;;;;;5076319;28;20219;-70
2022/05/13 01:21:04;;;;;;;3.23;2.20;;;14.30;76.00;;;;;;5077548;28;20197;-70
2022/05/13 01:23:34;;;;;;;3.07;2.77;;;14.30;76.20;;;;;;5077898;28;20198;-70
2022/05/13 01:26:03;;;;;;;4.53;2.50;;;14.30;76.20;;;;;;5066778;28;20285;-70
2022/05/13 01:28:32;;;;;;;6.97;2.57;;;14.20;76.30;;;;;;5069678;28;20324;-70
2022/05/13 01:31:02;;;;;;;4.23;2.30;;;14.20;76.30;;;;;;5077706;28;20292;-71
2022/05/13 01:33:29;;;;;;;5.50;2.63;;;14.30;76.50;;;;;;5076905;28;20300;-71
2022/05/13 01:35:59;;;;;;;4.80;2.83;;;14.30;76.40;;;;;;5071013;28;20896;-71
2022/05/13 01:38:28;;;;;;;5.77;2.37;;;14.30;76.50;;;;;;5076208;28;20705;-70
2022/05/13 01:40:57;;;;;;;6.37;2.50;;;14.30;76.60;;;;;;5077843;28;20201;-70
2022/05/13 01:43:24;;;;;;;5.53;2.43;;;14.30;76.70;;;;;;5077693;28;20205;-71
2022/05/13 01:45:51;;;;;;;2.97;2.50;;;14.30;76.70;;;;;;5076376;28;20296;-72
2022/05/13 01:48:19;;;;;;;4.73;2.40;;;14.30;76.60;;;;;;5091392;28;20208;-70
2022/05/13 01:50:46;;;;;;;4.23;2.60;;;14.30;76.60;;;;;;5064567;28;20292;-70
2022/05/13 01:53:13;;;;;;;7.07;2.90;;;14.20;76.60;;;;;;5071583;28;20205;-72
2022/05/13 01:55:42;;;;;;;9.13;2.57;;;14.30;77.50;;;;;;5076861;28;20221;-70
2022/05/13 01:58:11;;;;;;;3.47;2.37;;;14.30;76.70;;;;;;5076780;28;20205;-71
2022/05/13 02:00:39;;;;;;;5.07;2.57;;;14.40;76.80;;;;;;5077561;28;20202;-71
2022/05/13 02:05:50;;;;;;;3.97;2.30;;;14.50;76.50;;;;;;5075234;28;20197;-70
2022/05/13 02:08:17;;;;;;;5.33;2.40;;;14.50;76.40;;;;;;5076305;28;20209;-70
2022/05/13 02:10:44;;;;;;;4.07;2.40;;;14.50;76.30;;;;;;5091503;28;20222;-71
2022/05/13 02:13:14;;;;;;;5.33;2.53;;;14.50;76.20;;;;;;5083473;28;20795;-70
2022/05/13 02:15:41;;;;;;;6.20;2.27;;;14.50;76.40;;;;;;5077028;28;20239;-71
2022/05/13 02:18:09;;;;;;;7.90;2.93;;;14.50;76.20;;;;;;5076540;28;20208;-70
2022/05/13 02:20:36;;;;;;;3.17;2.50;;;14.50;76.10;;;;;;5076171;28;20213;-70
2022/05/13 02:23:03;;;;;;;4.57;2.60;;;14.50;76.00;;;;;;5074173;28;20630;-71
2022/05/13 02:25:30;;;;;;;4.10;2.27;;;14.50;76.00;;;;;;5073614;28;20334;-70
2022/05/13 02:27:57;;;;;;;2.60;2.40;;;14.40;75.90;;;;;;5076888;28;20201;-71
2022/05/13 02:30:27;;;;;;;4.40;2.63;;;14.40;76.10;;;;;;5087197;28;20237;-70
2022/05/13 02:32:54;;;;;;;6.90;2.87;;;14.40;76.10;;;;;;5082115;28;20292;-70
2022/05/13 02:35:21;;;;;;;3.80;2.17;;;14.30;76.20;;;;;;5075856;28;20588;-71
2022/05/13 02:37:49;;;;;;;6.17;3.03;;;14.30;76.50;;;;;;5071020;28;20637;-71
2022/05/13 02:40:17;;;;;;;4.37;2.40;;;14.30;76.50;;;;;;5063147;28;20232;-70
2022/05/13 02:42:44;;;;;;;5.13;2.37;;;14.20;76.60;;;;;;5076097;28;20649;-70
2022/05/13 02:45:12;;;;;;;3.43;2.40;;;14.20;76.60;;;;;;5074795;28;20289;-71
2022/05/13 02:47:41;;;;;;;4.87;2.83;;;14.20;76.70;;;;;;5076327;28;20205;-71
2022/05/13 02:50:19;;;;;;;10.17;2.40;;;14.10;76.70;;;;;;5075910;28;20237;-71
2022/05/13 02:52:46;;;;;;;3.10;2.20;;;14.10;76.50;;;;;;5085020;28;20627;-71
2022/05/13 02:55:14;;;;;;;4.10;2.40;;;14.10;76.50;;;;;;5073817;28;20661;-70
2022/05/13 02:57:41;;;;;;;5.87;2.20;;;14.00;76.50;;;;;;5071520;28;20252;-71
2022/05/13 03:00:09;;;;;;;3.90;2.50;;;14.00;76.70;;;;;;5075212;28;20272;-71
2022/05/13 03:02:36;;;;;;;5.93;2.53;;;14.00;76.70;;;;;;5075639;28;20220;-71
2022/05/13 03:05:06;;;;;;;7.17;2.30;;;14.00;77.10;;;;;;5087613;28;20283;-71
2022/05/13 03:07:33;;;;;;;5.17;2.67;;;14.00;77.30;;;;;;5077277;28;20229;-70
2022/05/13 03:10:00;;;;;;;5.40;2.70;;;14.00;77.40;;;;;;5076112;28;20209;-71
2022/05/13 03:12:26;;;;;;;6.13;2.33;;;14.00;77.40;;;;;;5068523;28;20656;-70
2022/05/13 03:14:53;;;;;;;3.90;2.30;;;14.00;77.50;;;;;;5074121;28;20692;-70
2022/05/13 03:17:20;;;;;;;3.13;2.50;;;13.90;77.60;;;;;;5075165;28;20308;-70
2022/05/13 03:19:47;;;;;;;7.00;3.00;;;13.90;77.70;;;;;;5075615;28;20209;-70
2022/05/13 03:22:16;;;;;;;9.40;2.80;;;14.00;77.70;;;;;;5089918;28;20208;-71
2022/05/13 03:24:43;;;;;;;5.70;3.17;;;14.00;77.80;;;;;;5078914;28;20197;-70
2022/05/13 03:27:10;;;;;;;5.73;2.47;;;14.00;77.80;;;;;;5066421;28;20209;-70
2022/05/13 03:29:37;;;;;;;7.07;2.47;;;14.00;77.90;;;;;;5073490;28;20293;-71
2022/05/13 03:32:05;;;;;;;6.20;2.53;;;14.00;77.90;;;;;;5075327;28;20244;-71
2022/05/13 03:34:32;;;;;;;4.87;2.57;;;14.10;77.80;;;;;;5072453;28;20296;-71
2022/05/13 03:36:59;;;;;;;8.33;2.50;;;14.10;77.50;;;;;;5068574;28;20260;-71
2022/05/13 03:39:27;;;;;;;7.67;2.83;;;14.10;77.50;;;;;;5074545;28;20215;-71
2022/05/13 03:41:54;;;;;;;7.43;2.70;;;14.20;77.40;;;;;;5076005;28;20201;-71
2022/05/13 03:44:21;;;;;;;6.63;2.70;;;14.30;77.20;;;;;;5071019;28;20205;-71
2022/05/13 03:46:48;;;;;;;3.47;2.47;;;14.30;77.10;;;;;;5072108;28;20334;-70
2022/05/13 03:49:15;;;;;;;5.43;2.43;;;14.40;76.90;;;;;;5076203;28;20208;-71
2022/05/13 03:51:42;;;;;;;7.23;2.30;;;14.40;76.80;;;;;;5075669;28;20209;-71
2022/05/13 03:54:09;;;;;;;6.30;2.87;;;14.40;76.60;;;;;;5062376;28;20261;-71
2022/05/13 03:56:38;;;;;;;6.17;2.97;;;14.50;76.70;;;;;;5075956;28;20737;-70
2022/05/13 03:59:05;;;;;;;7.80;2.70;;;14.50;76.40;;;;;;5074612;28;20574;-71
2022/05/13 04:01:31;;;;;;;6.73;2.53;;;14.50;76.40;;;;;;5073702;28;20209;-71
2022/05/13 04:03:59;;;;;;;5.83;2.67;;;14.50;76.50;;;;;;5073345;28;20632;-71
2022/05/13 04:09:10;;;;;;;7.53;2.90;;;14.60;76.40;;;;;;5074934;28;20258;-72
2022/05/13 04:11:39;;;;;;;7.43;2.53;;;14.70;76.20;;;;;;5075420;28;20276;-71
2022/05/13 04:16:52;;;;;;;4.67;2.23;;;14.80;75.80;;;;;;5073414;28;20243;-71
2022/05/13 04:19:20;;;;;;;5.27;2.70;;;14.90;75.80;;;;;;5070190;28;20220;-71
2022/05/13 04:21:47;;;;;;;4.60;2.63;;;14.90;75.70;;;;;;5071282;28;20298;-71
2022/05/13 04:24:16;;;;;;;4.57;2.43;;;14.90;75.20;;;;;;5072625;28;20209;-72
2022/05/13 04:26:45;;;;;;;6.63;3.03;;;15.00;75.30;;;;;;5074984;28;20216;-71
2022/05/13 04:29:12;;;;;;;7.87;2.30;;;15.00;74.90;;;;;;5078020;28;20646;-71
2022/05/13 04:31:41;;;;;;;4.80;2.90;;;15.00;74.80;;;;;;5061350;28;20215;-72
2022/05/13 04:34:09;;;;;;;5.37;3.00;;;15.10;74.90;;;;;;5072416;28;20668;-71
2022/05/13 04:36:37;;;;;;;8.20;3.20;;;15.20;75.50;;;;;;5074407;28;20225;-71
2022/05/13 04:39:05;;;;;;;8.10;3.47;;;15.20;74.40;;;;;;5072287;28;20205;-71
2022/05/13 04:44:18;;;;;;;4.23;2.83;;;15.30;74.20;;;;;;5073729;28;20691;-71
2022/05/13 04:46:45;;;;;;;4.40;2.63;;;15.40;73.90;;;;;;5072754;28;20209;-71
2022/05/13 04:49:12;;;;;;;6.63;3.00;;;15.40;73.80;;;;;;5074424;28;20205;-70
2022/05/13 04:51:40;;;;;;;8.33;3.43;;;15.50;73.50;;;;;;5075239;28;20213;-71
2022/05/13 04:54:07;;;;;;;7.43;2.40;;;15.50;73.30;;;;;;5074625;28;20205;-71
2022/05/13 04:56:34;;;;;;;8.33;2.90;;;15.60;73.40;;;;;;5074158;28;20311;-71
2022/05/13 04:59:01;;;;;;;10.80;2.87;;;15.60;73.80;;;;;;5073496;28;20662;-71
2022/05/13 05:01:30;;;;;;;11.60;3.20;;;15.70;73.00;;;;;;5072607;28;20315;-70
2022/05/13 05:03:57;;;;;;;11.97;3.57;;;15.80;72.80;;;;;;5073118;28;20205;-70
2022/05/13 05:06:24;;;;;;;13.50;3.47;;;15.90;72.70;;;;;;5073227;28;20296;-71
2022/05/13 05:08:53;;;;;;;10.60;3.20;;;15.90;72.20;;;;;;5059122;28;20224;-70
2022/05/13 05:11:19;;;;;;;5.93;2.23;;;16.00;72.00;;;;;;5077846;28;20550;-71
2022/05/13 05:13:48;;;;;;;10.38;3.65;;;16.00;71.60;;;;;;5073863;28;20275;-71
2022/05/13 05:16:16;;;;;;;8.13;2.53;;;16.10;71.40;;;;;;5081837;28;20247;-71
2022/05/13 05:18:45;;;;;;;11.27;2.80;;;16.20;71.70;;;;;;5077638;28;20204;-71
2022/05/13 05:21:13;;;;;;;7.82;2.60;;;16.30;71.00;;;;;;5083510;28;20243;-70
2022/05/13 05:23:43;;;;;;;8.37;3.03;;;16.40;70.90;;;;;;5069516;28;20699;-71
2022/05/13 05:26:10;;;;;;;14.53;3.17;;;16.40;70.00;;;;;;5071470;28;20292;-72
2022/05/13 05:28:38;;;;;;;8.73;3.03;;;16.40;70.00;;;;;;5078347;28;20236;-70
2022/05/13 05:31:06;;;;;;;10.60;3.53;;;16.60;70.10;;;;;;5071679;28;20696;-71
2022/05/13 05:33:33;;;;;;;12.82;3.42;;;16.60;70.20;;;;;;5074032;28;20208;-71
2022/05/13 05:36:02;;;;;;;6.70;2.70;;;16.60;70.20;;;;;;5075437;28;20249;-71
2022/05/13 05:38:29;;;;;;;9.77;2.50;;;16.70;69.90;;;;;;5083966;28;20236;-71
2022/05/13 05:40:57;;;;;;;12.50;2.78;;;16.70;69.30;;;;;;5097448;28;20331;-75
2022/05/13 05:43:24;;;;;;;8.23;2.20;;;16.80;69.00;;;;;;5085880;28;20205;-74
2022/05/13 05:45:51;;;;;;;6.17;2.77;;;16.90;68.90;;;;;;5089105;28;20204;-75
2022/05/13 05:48:22;;;;;;;9.88;2.08;;;16.90;68.20;;;;;;5072007;28;20211;-70
2022/05/13 05:50:50;;;;;;;5.28;2.65;;;16.90;67.60;;;;;;5083237;28;20228;-69
2022/05/13 05:57:13;;;;;;;8.48;2.47;;;16.90;67.60;;;;;;5075942;28;20649;-69
2022/05/13 05:58:53;;;;;;;8.82;2.03;;;17.00;67.50;;;;;;5080147;28;20205;-73
2022/05/13 06:01:20;;;;;;;9.93;2.22;;;17.10;67.20;;;;;;5068106;28;20552;-75
2022/05/13 06:03:47;;;;;;;9.48;2.55;;;17.10;66.80;;;;;;5074752;28;20204;-71
2022/05/13 06:06:14;;;;;;;13.68;3.20;;;17.30;66.90;;;;;;5075022;28;20225;-70
2022/05/13 06:08:42;;;;;;;6.78;2.50;;;17.30;66.70;;;;;;5073479;28;20244;-73
2022/05/13 06:11:10;;;;;;;7.85;2.20;;;17.50;66.30;;;;;;5068478;28;20741;-72
2022/05/13 06:13:37;;;;;;;7.15;2.25;;;17.60;66.00;;;;;;5077168;28;20264;-72
2022/05/13 06:16:07;;;;;;;9.18;2.50;;;17.70;65.40;;;;;;5079123;28;20201;-71
2022/05/13 06:18:35;;;;;;;8.55;1.95;;;17.70;65.40;;;;;;5077454;28;20236;-71
2022/05/13 06:21:02;;;;;;;3.05;1.50;;;17.90;65.50;;;;;;5080598;28;20618;-69
2022/05/13 06:23:29;;;;;;;5.78;1.83;;;17.90;64.80;;;;;;5081123;28;20217;-71
2022/05/13 06:25:58;;;;;;;6.82;1.90;;;18.00;64.40;;;;;;5074139;28;20242;-70
2022/05/13 06:28:25;;;;;;;4.38;1.50;;;18.00;63.70;;;;;;5074160;28;20201;-70
2022/05/13 06:30:51;;;;;;;7.47;1.70;;;18.10;63.10;;;;;;5076830;28;20677;-69
2022/05/13 06:33:19;;;;;;;3.28;1.52;;;18.10;62.10;;;;;;5073163;28;20243;-70
2022/05/13 06:35:46;;;;;;;5.65;1.50;;;18.10;62.10;;;;;;5075919;28;20209;-69
2022/05/13 06:38:20;;;;;;;3.53;1.60;;;18.10;62.20;;;;;;5078420;28;20217;-72
2022/05/13 06:40:47;;;;;;;2.33;1.20;;;18.20;62.30;;;;;;5074208;28;20243;-71
2022/05/13 06:43:16;;;;;;;4.05;1.90;;;18.30;61.20;;;;;;5077537;28;20213;-72
2022/05/13 06:45:44;;;;;;;5.10;1.20;;;18.30;61.10;;;;;;5076723;28;20211;-70
2022/05/13 06:48:11;;;;;;;3.95;1.17;;;18.40;60.70;;;;;;5075306;28;20205;-73
2022/05/13 06:50:39;;;;;;;3.20;1.02;;;18.40;61.00;;;;;;5066767;28;20206;-74
2022/05/13 06:53:07;;;;;;;3.75;1.27;;;18.40;60.20;;;;;;5065823;28;21040;-72
2022/05/13 06:55:34;;;;;;;3.28;1.13;;;18.50;60.30;;;;;;5075386;28;20205;-69
2022/05/13 06:58:01;;;;;;;2.22;1.13;;;18.60;60.10;;;;;;5075099;28;20689;-68
2022/05/13 07:00:30;;;;;;;2.70;0.90;;;18.60;59.80;;;;;;5067924;28;20232;-72
2022/05/13 07:02:57;;;;;;;3.70;1.40;;;18.60;59.80;;;;;;5083145;28;20676;-69
2022/05/13 07:05:23;;;;;;;1.00;0.90;;;18.70;59.70;;;;;;5072017;28;20244;-68
2022/05/13 07:07:52;;;;;;;0.77;0.68;;;18.70;59.40;;;;;;5070881;28;20228;-72
2022/05/13 07:10:19;;;;;;;3.50;1.00;;;18.80;59.40;;;;;;5069711;28;20270;-72
2022/05/13 07:12:46;;;;;;;2.03;0.90;;;18.90;59.30;;;;;;5076381;28;20229;-74
2022/05/13 07:15:15;;;;;;;1.45;0.90;;;18.90;59.40;;;;;;5071507;28;20216;-71
2022/05/13 07:17:44;;;;;;;1.10;1.00;;;18.90;59.00;;;;;;5074489;28;20224;-72
2022/05/13 07:20:13;;;;;;;0.93;0.80;;;19.00;58.60;;;;;;5058177;28;20248;-74
2022/05/13 07:22:40;;;;;;;2.13;1.23;;;19.10;58.50;;;;;;5072618;28;21527;-74
2022/05/13 07:25:08;;;;;;;4.13;0.98;;;19.20;58.10;;;;;;5076010;28;20201;-71
2022/05/13 07:27:35;;;;;;;4.00;0.90;;;19.30;57.50;;;;;;5071406;28;20202;-73
2022/05/13 07:30:03;;;;;;;1.35;0.80;;;19.30;57.70;;;;;;5063428;28;20224;-70
2022/05/13 07:32:30;;;;;;;4.57;1.20;;;19.50;57.70;;;;;;5078196;28;20234;-71
2022/05/13 07:34:58;;;;;;;2.15;0.82;;;19.60;57.10;;;;;;5081597;28;20201;-69
2022/05/13 07:37:25;;;;;;;0.98;0.98;;;19.70;56.70;;;;;;5091411;28;20252;-69
2022/05/13 07:42:36;;;;;;;1.77;1.13;;;19.90;56.40;;;;;;5071267;28;20204;-70
2022/05/13 07:45:03;;;;;;;1.60;1.00;;;20.00;56.40;;;;;;5079623;28;20201;-70
2022/05/13 07:47:30;;;;;;;3.42;0.82;;;20.20;55.90;;;;;;5069677;28;20688;-69
2022/05/13 07:49:58;;;;;;;4.35;0.98;;;20.30;55.80;;;;;;5079658;28;20216;-71
2022/05/13 07:52:26;;;;;;;3.08;1.10;;;20.40;55.00;;;;;;5070874;28;20241;-69
2022/05/13 07:54:53;;;;;;;4.32;1.05;;;20.40;54.50;;;;;;5072959;28;20236;-69
2022/05/13 07:57:20;;;;;;;5.60;1.00;;;20.50;54.70;;;;;;5072431;28;20680;-70
2022/05/13 08:02:31;;;;;;;1.88;1.08;;;20.70;54.20;;;;;;5077093;28;20204;-73
2022/05/13 08:04:59;;;;;;;5.65;0.90;;;20.70;53.60;;;;;;5076082;28;20240;-72
2022/05/13 08:07:26;;;;;;;5.05;1.13;;;20.80;53.40;;;;;;5088185;28;20231;-74
2022/05/13 08:09:53;;;;;;;2.97;1.00;;;20.90;54.20;;;;;;5086188;28;20204;-73
2022/05/13 08:12:20;;;;;;;6.47;1.25;;;21.00;53.40;;;;;;5073415;28;20392;-72
2022/05/13 08:14:48;;;;;;;3.90;1.13;;;21.00;52.60;;;;;;5088931;28;20258;-73
2022/05/13 08:17:16;;;;;;;1.77;0.90;;;21.10;52.70;;;;;;5088425;28;20444;-72
2022/05/13 08:19:43;;;;;;;1.35;1.20;;;21.20;52.80;;;;;;5087456;28;20224;-71
2022/05/13 08:22:11;;;;;;;1.65;1.13;;;21.30;52.90;;;;;;5085353;28;20247;-69
2022/05/13 08:24:38;;;;;;;2.85;1.50;;;21.40;52.40;;;;;;5073428;28;20213;-70
2022/05/13 08:27:05;;;;;;;3.20;1.30;;;21.40;52.10;;;;;;5077969;28;20198;-69
2022/05/13 08:29:32;;;;;;;2.33;0.93;;;21.50;52.50;;;;;;5074200;28;20255;-70
2022/05/13 08:31:59;;;;;;;3.35;0.80;;;21.50;51.70;;;;;;5068564;28;20212;-71
2022/05/13 08:34:26;;;;;;;3.03;1.33;;;21.50;51.80;;;;;;5080768;28;20733;-70
2022/05/13 08:36:53;;;;;;;1.90;1.20;;;21.40;52.20;;;;;;5064464;28;20569;-70
2022/05/13 08:39:21;;;;;;;63.85;6.35;;;21.40;59.40;;;;;;5072201;28;20260;-68
2022/05/13 08:42:04;;;;;;;1.20;1.10;;;21.40;66.00;;;;;;5072204;28;20213;-65
2022/05/13 08:44:32;;;;;;;1.52;0.73;;;21.00;58.50;;;;;;5065938;28;20205;-67
2022/05/13 08:47:07;;;;;;;2.42;0.90;;;20.60;53.80;;;;;;5067315;28;20263;-67
2022/05/13 08:49:41;;;;;;;1.75;0.80;;;20.70;53.20;;;;;;5067293;28;20223;-68
2022/05/13 08:55:01;;;;;;;2.00;1.20;;;21.10;53.80;;;;;;5067791;28;20243;-67
2022/05/13 08:57:40;;;;;;;3.38;2.15;;;21.40;52.40;;;;;;5074462;28;20613;-68
2022/05/13 09:00:11;;;;;;;2.08;0.98;;;21.50;52.00;;;;;;5076102;28;20231;-71
2022/05/13 09:02:40;;;;;;;2.78;0.77;;;21.60;51.00;;;;;;5069251;28;20255;-67
2022/05/13 09:05:21;;;;;;;5.82;0.80;;;21.80;51.10;;;;;;5072814;28;20270;-66
2022/05/13 09:07:51;;;;;;;3.33;0.82;;;21.90;50.00;;;;;;5062643;28;20236;-70
2022/05/13 09:10:19;;;;;;;2.45;0.90;;;22.00;50.60;;;;;;5076240;28;20235;-67
2022/05/13 09:12:53;;;;;;;2.38;1.45;;;22.10;50.00;;;;;;5068408;28;20247;-67
2022/05/13 09:15:24;;;;;;;2.97;1.00;;;22.30;49.80;;;;;;5072321;28;20305;-67
2022/05/13 09:18:05;;;;;;;2.42;0.95;;;22.50;49.60;;;;;;5074542;28;20221;-69
2022/05/13 09:20:41;;;;;;;2.42;0.90;;;22.60;49.10;;;;;;5070828;28;20605;-66
2022/05/13 09:23:11;;;;;;;2.53;0.88;;;22.50;48.70;;;;;;5073660;28;20664;-66
2022/05/13 09:25:55;;;;;;;1.88;0.70;;;22.60;48.60;;;;;;5076064;28;20561;-65
2022/05/13 09:28:22;;;;;;;3.38;0.82;;;22.80;49.00;;;;;;5067798;28;20205;-69
2022/05/13 09:30:50;;;;;;;3.45;0.90;;;23.00;48.80;;;;;;5075206;28;20212;-70
2022/05/13 09:33:23;;;;;;;4.00;1.08;;;23.10;48.00;;;;;;5070127;28;20212;-70
2022/05/13 09:35:53;;;;;;;2.55;1.20;;;23.10;47.70;;;;;;5065947;28;20568;-67
2022/05/13 09:38:23;;;;;;;4.07;0.80;;;23.20;48.00;;;;;;5079197;28;20220;-70
2022/05/13 09:41:03;;;;;;;1.40;0.75;;;23.30;47.80;;;;;;5091660;28;20604;-70
2022/05/13 09:43:36;;;;;;;3.58;1.30;;;23.40;47.70;;;;;;5082694;28;20574;-70
2022/05/13 09:46:06;;;;;;;1.58;1.02;;;23.60;48.00;;;;;;5085776;28;20205;-69
2022/05/13 09:48:35;;;;;;;4.05;1.00;;;23.80;47.80;;;;;;5083488;28;20196;-69
2022/05/13 09:51:25;;;;;;;1.98;0.80;;;24.00;47.00;;;;;;5084345;28;20227;-70
2022/05/13 09:54:03;;;;;;;1.67;1.00;;;24.10;46.30;;;;;;5080455;28;20223;-69
2022/05/13 09:56:40;;;;;;;2.58;0.70;;;24.30;46.60;;;;;;5089133;28;20235;-70
2022/05/13 09:59:14;;;;;;;1.73;0.98;;;24.10;46.00;;;;;;5082982;28;20220;-69
2022/05/13 10:01:41;;;;;;;3.38;1.27;;;24.10;46.30;;;;;;5079469;28;20287;-69
2022/05/13 10:04:12;;;;;;;3.22;1.05;;;24.10;45.90;;;;;;5075766;28;20241;-70
2022/05/13 10:06:41;;;;;;;2.25;1.10;;;24.20;45.70;;;;;;5069838;28;20236;-70
2022/05/13 10:14:45;;;;;;;2.45;1.10;;;24.40;45.40;;;;;;5070020;28;20701;-68
2022/05/13 10:17:15;;;;;;;2.60;0.68;;;24.50;44.70;;;;;;5071613;28;20251;-68
2022/05/13 10:19:46;;;;;;;1.85;0.80;;;24.60;44.30;;;;;;5068590;28;20306;-69
2022/05/13 10:22:21;;;;;;;4.60;2.00;;;24.50;43.90;;;;;;5074193;28;20205;-69
2022/05/13 10:24:53;;;;;;;2.60;0.90;;;24.40;44.20;;;;;;5071714;28;20288;-68
2022/05/13 10:27:30;;;;;;;1.23;0.80;;;24.30;44.40;;;;;;5069235;28;20592;-69
2022/05/13 10:30:04;;;;;;;2.83;1.33;;;24.20;44.30;;;;;;5074898;28;20322;-67
2022/05/13 10:32:49;;;;;;;3.35;0.90;;;24.30;44.90;;;;;;5067495;28;20197;-68
2022/05/13 10:35:19;;;;;;;1.63;0.77;;;24.40;45.00;;;;;;5072400;28;20704;-68
2022/05/13 10:38:00;;;;;;;2.65;1.40;;;24.70;45.20;;;;;;5070424;28;20247;-65
2022/05/13 10:40:34;;;;;;;3.05;0.93;;;24.90;44.30;;;;;;5072772;28;20284;-67
2022/05/13 10:43:07;;;;;;;2.20;0.80;;;25.10;43.60;;;;;;5070723;28;20214;-65
2022/05/13 10:45:37;;;;;;;3.05;0.80;;;25.00;42.50;;;;;;5073985;28;20205;-68
2022/05/13 10:48:27;;;;;;;3.10;1.15;;;24.90;43.20;;;;;;5064629;28;20213;-68
2022/05/13 10:51:08;;;;;;;1.70;1.10;;;25.00;43.40;;;;;;5061250;28;20688;-68
2022/05/13 10:53:50;;;;;;;1.02;0.90;;;25.10;43.50;;;;;;5074885;28;20201;-71
2022/05/13 10:56:23;;;;;;;1.20;0.93;;;25.20;43.40;;;;;;5070316;28;20606;-71
2022/05/13 10:58:58;;;;;;;3.72;0.90;;;25.10;43.20;;;;;;5073137;28;20300;-69
2022/05/13 11:01:39;;;;;;;3.67;1.13;;;24.90;43.20;;;;;;5076393;28;20235;-72
2022/05/13 11:04:16;;;;;;;2.13;1.38;;;24.70;43.40;;;;;;5067545;28;20221;-70
2022/05/13 11:06:57;;;;;;;3.13;1.25;;;24.40;43.60;;;;;;5082384;28;20683;-71
2022/05/13 11:09:36;;;;;;;4.20;1.10;;;24.30;44.60;;;;;;5074915;28;20199;-70
2022/05/13 11:12:11;;;;;;;3.58;1.00;;;24.30;44.90;;;;;;5077994;28;20206;-71
2022/05/13 11:14:58;;;;;;;2.10;0.90;;;24.40;44.40;;;;;;5086450;28;20645;-72
2022/05/13 11:17:34;;;;;;;2.58;1.05;;;24.60;44.60;;;;;;5076306;28;20204;-69
2022/05/13 11:20:14;;;;;;;3.40;1.15;;;24.80;43.80;;;;;;5083084;28;20208;-70
2022/05/13 11:22:47;;;;;;;2.47;0.93;;;24.90;43.40;;;;;;5078031;28;20228;-71
2022/05/13 11:28:45;;;;;;;2.45;1.13;;;25.10;43.00;;;;;;5074636;28;20199;-71
2022/05/13 11:31:28;;;;;;;2.50;1.15;;;25.20;42.80;;;;;;5086249;28;20540;-71
2022/05/13 11:34:05;;;;;;;2.20;1.10;;;25.10;42.90;;;;;;5085364;28;20205;-71
2022/05/13 11:36:46;;;;;;;1.33;1.02;;;25.10;42.60;;;;;;5080329;28;20196;-72
2022/05/13 11:39:43;;;;;;;4.05;1.55;;;25.10;42.70;;;;;;5070136;28;20220;-71
2022/05/13 11:42:23;;;;;;;4.45;1.77;;;25.10;43.10;;;;;;5069540;28;20297;-70
2022/05/13 11:45:09;;;;;;;3.67;1.40;;;25.00;43.00;;;;;;5067779;28;20208;-70
2022/05/13 11:47:48;;;;;;;4.80;1.10;;;25.00;43.60;;;;;;5072823;28;20200;-71
2022/05/13 11:50:17;;;;;;;3.53;0.88;;;25.00;43.80;;;;;;5073283;28;20273;-71
2022/05/13 11:52:49;;;;;;;3.50;1.05;;;24.90;43.60;;;;;;5078554;28;20292;-70
2022/05/13 11:55:19;;;;;;;4.72;0.88;;;24.80;44.00;;;;;;5081546;28;20209;-70
2022/05/13 11:57:48;;;;;;;4.55;1.27;;;24.80;44.10;;;;;;5085042;28;20208;-70
2022/05/13 12:00:41;;;;;;;3.88;1.05;;;24.80;45.10;;;;;;5082611;28;20224;-69
2022/05/13 12:03:20;;;;;;;2.75;1.00;;;24.80;43.90;;;;;;5062001;28;20208;-70
2022/05/13 12:06:01;;;;;;;1.88;0.90;;;24.90;44.30;;;;;;5083578;28;20198;-70
2022/05/13 12:08:33;;;;;;;2.40;1.27;;;25.10;44.40;;;;;;5086034;28;20215;-70
2022/05/13 12:11:26;;;;;;;2.00;1.08;;;25.10;44.10;;;;;;5085657;28;20215;-70
2022/05/13 12:14:05;;;;;;;11.57;1.20;;;25.00;44.00;;;;;;5075265;28;20798;-70
2022/05/13 12:16:41;;;;;;;2.45;1.00;;;25.00;44.70;;;;;;5088907;28;20212;-71
2022/05/13 12:19:39;;;;;;;2.47;1.10;;;24.80;44.40;;;;;;5088862;28;20300;-69
2022/05/13 12:22:12;;;;;;;2.63;1.15;;;24.70;44.50;;;;;;5081508;28;20201;-71
2022/05/13 12:25:00;;;;;;;1.13;0.80;;;24.60;44.60;;;;;;5081780;28;20201;-70
2022/05/13 12:27:37;;;;;;;3.90;1.30;;;24.60;45.20;;;;;;5079585;28;20287;-70
2022/05/13 12:30:30;;;;;;;1.83;1.02;;;24.60;45.30;;;;;;5091029;28;20219;-70
2022/05/13 12:32:58;;;;;;;5.50;1.20;;;24.80;45.30;;;;;;5080323;28;20204;-70
2022/05/13 12:38:23;;;;;;;5.13;0.93;;;25.30;44.80;;;;;;5084098;28;20212;-72
2022/05/13 12:40:59;;;;;;;2.72;1.20;;;25.30;44.70;;;;;;5090221;28;20234;-71
2022/05/13 12:43:46;;;;;;;4.07;1.00;;;25.40;44.80;;;;;;5071354;28;20193;-68
2022/05/13 12:46:19;;;;;;;5.63;1.40;;;25.40;44.80;;;;;;5074840;28;20639;-69
2022/05/13 12:49:10;;;;;;;1.88;1.08;;;25.60;45.00;;;;;;5067379;28;20292;-67
2022/05/13 12:51:46;;;;;;;2.33;1.00;;;25.60;44.20;;;;;;5062668;28;20316;-68
2022/05/13 12:54:19;;;;;;;1.67;1.00;;;25.50;44.60;;;;;;5076651;28;20654;-69
2022/05/13 12:56:49;;;;;;;7.18;1.33;;;25.40;44.80;;;;;;5074036;28;20197;-70
2022/05/13 12:59:23;;;;;;;1.45;1.10;;;25.30;44.90;;;;;;5067408;28;20248;-68
2022/05/13 13:01:54;;;;;;;3.67;1.10;;;25.30;45.20;;;;;;5079462;28;20301;-69
2022/05/13 13:04:23;;;;;;;3.78;1.38;;;25.20;44.90;;;;;;5090355;28;20205;-69
2022/05/13 13:06:53;;;;;;;2.85;1.65;;;25.10;44.70;;;;;;5090009;28;20228;-69
2022/05/13 13:09:22;;;;;;;4.22;1.23;;;25.10;45.00;;;;;;5087556;28;20292;-68
2022/05/13 13:11:56;;;;;;;2.30;1.10;;;25.20;45.20;;;;;;5084405;28;20205;-68
2022/05/13 13:14:42;;;;;;;3.38;1.30;;;25.20;45.40;;;;;;5075550;28;20271;-68
2022/05/13 13:17:19;;;;;;;4.05;1.05;;;25.10;45.30;;;;;;5080561;28;20284;-69
2022/05/13 13:19:48;;;;;;;1.48;1.15;;;24.90;45.20;;;;;;5066481;28;20228;-69
2022/05/13 13:22:22;;;;;;;3.67;1.25;;;24.80;45.30;;;;;;5075448;28;20217;-69
2022/05/13 13:24:49;;;;;;;1.15;1.00;;;24.70;45.20;;;;;;5077373;28;20197;-68
2022/05/13 13:27:18;;;;;;;2.08;1.15;;;24.50;45.10;;;;;;5076395;28;20300;-69
2022/05/13 13:29:48;;;;;;;2.85;1.20;;;24.30;45.40;;;;;;5075704;28;20300;-69
2022/05/13 13:32:18;;;;;;;2.67;1.35;;;24.20;46.00;;;;;;5073185;28;20218;-69
2022/05/13 13:34:51;;;;;;;4.65;1.20;;;24.00;46.20;;;;;;5072809;28;20205;-68
2022/05/13 13:37:22;;;;;;;2.80;1.70;;;23.80;46.00;;;;;;5078011;28;20197;-69